Time;durP1;ratioP1;P1;durP2;ratioP2;P2;SDS_P1;SDS_P2;PMS_P1;PMS_P2;Temp;Humidity;BMP_temperature;BMP_pressure;BME280_temperature;BME280_humidity;BME280_pressure;Samples;Min_cycle;Max_cycle;Signal;HPM_P1;HPM_P2
2023/04/30 00:00:07;;;;;;;9.10;6.30;;;;;;;-145.69;100.00;52468.16;5095691;28;20202;-81
2023/04/30 00:02:34;;;;;;;15.27;6.70;;;;;;;-145.69;100.00;52535.47;5079428;28;20632;-81
2023/04/30 00:05:00;;;;;;;16.03;7.57;;;;;;;-145.69;100.00;52539.44;5075371;28;20238;-81
2023/04/30 00:07:26;;;;;;;11.80;6.50;;;;;;;-145.69;100.00;52529.53;5075415;28;20206;-81
2023/04/30 00:09:53;;;;;;;15.53;8.23;;;;;;;-145.69;100.00;52541.44;5084283;28;20197;-81
2023/04/30 00:12:20;;;;;;;16.23;8.17;;;;;;;-145.69;100.00;52511.72;5095360;28;20202;-81
2023/04/30 00:14:46;;;;;;;12.13;7.27;;;;;;;-145.69;100.00;52541.44;5095664;28;20226;-81
2023/04/30 00:17:14;;;;;;;12.77;7.67;;;;;;;-145.69;100.00;52501.81;5094960;28;20653;-81
2023/04/30 00:19:41;;;;;;;15.83;7.37;;;;;;;-145.69;100.00;52501.81;5095629;28;20202;-81
2023/04/30 00:22:07;;;;;;;13.33;7.00;;;;;;;-145.69;100.00;52535.47;5095349;28;20201;-82
2023/04/30 00:24:34;;;;;;;15.83;8.03;;;;;;;-145.69;100.00;52523.59;5095178;28;20210;-81
2023/04/30 00:27:00;;;;;;;14.53;7.93;;;;;;;-145.69;100.00;52543.41;5095275;28;20664;-82
2023/04/30 00:29:27;;;;;;;11.93;6.70;;;;;;;-145.69;100.00;52527.56;5095390;28;20197;-81
2023/04/30 00:31:53;;;;;;;14.27;6.73;;;;;;;-145.69;100.00;52482.00;5095451;28;20201;-83
2023/04/30 00:34:21;;;;;;;12.77;6.90;;;;;;;-145.69;100.00;52529.53;5094958;28;20202;-82
2023/04/30 00:36:48;;;;;;;12.13;7.00;;;;;;;-145.69;100.00;52535.47;5095395;28;20560;-82
2023/04/30 00:39:15;;;;;;;12.90;6.77;;;;;;;-145.69;100.00;52503.81;5094993;28;20206;-83
2023/04/30 00:41:42;;;;;;;12.37;6.20;;;;;;;-145.69;100.00;52501.81;5094624;28;20288;-82
2023/04/30 00:44:09;;;;;;;16.23;7.20;;;;;;;-145.69;100.00;52523.59;5094712;28;20198;-82
2023/04/30 00:46:35;;;;;;;13.20;7.07;;;;;;;-145.69;100.00;52535.47;5095003;28;20213;-82
2023/04/30 00:49:03;;;;;;;16.90;7.23;;;;;;;-145.69;100.00;52509.75;5095171;28;20240;-81
2023/04/30 00:51:31;;;;;;;14.33;7.43;;;;;;;-145.69;100.00;52501.81;5094507;28;20194;-80
2023/04/30 00:54:01;;;;;;;11.80;6.33;;;;;;;-145.69;100.00;52503.81;5094262;28;20641;-81
2023/04/30 00:56:28;;;;;;;12.20;6.53;;;;;;;-145.69;100.00;52527.56;5094539;28;20714;-81
2023/04/30 00:58:56;;;;;;;14.30;7.13;;;;;;;-145.69;100.00;52539.44;5094865;28;20198;-82
2023/04/30 01:01:22;;;;;;;13.77;7.57;;;;;;;-145.69;100.00;52519.63;5094211;28;20285;-82
2023/04/30 01:03:49;;;;;;;14.20;7.23;;;;;;;-145.69;100.00;52531.53;5093579;28;20230;-80
2023/04/30 01:06:16;;;;;;;16.07;7.47;;;;;;;-145.69;100.00;52511.72;5093577;28;20205;-79
2023/04/30 01:08:44;;;;;;;12.40;6.97;;;;;;;-145.69;100.00;52519.63;5094347;28;20202;-81
2023/04/30 01:11:23;;;;;;;10.37;6.17;;;;;;;-145.69;100.00;52529.53;5094558;28;20292;-80
2023/04/30 01:13:55;;;;;;;11.10;6.47;;;;;;;-145.69;100.00;52501.81;5093730;28;20194;-81
2023/04/30 01:16:25;;;;;;;13.35;8.02;;;;;;;-145.69;100.00;52511.72;5093163;28;20464;-80
2023/04/30 01:18:57;;;;;;;13.67;7.20;;;;;;;-145.69;100.00;52523.59;5094029;28;20198;-80
2023/04/30 01:21:24;;;;;;;12.37;7.10;;;;;;;-145.69;100.00;52519.63;5094326;28;20198;-80
2023/04/30 01:24:17;;;;;;;10.60;6.97;;;;;;;-145.69;100.00;52551.31;5094186;28;20657;-80
2023/04/30 01:26:59;;;;;;;13.23;7.07;;;;;;;-145.69;100.00;52555.28;5094062;28;20206;-81
2023/04/30 01:29:29;;;;;;;15.27;7.67;;;;;;;-145.69;100.00;52539.44;5093807;28;20198;-82
2023/04/30 01:32:07;;;;;;;14.33;7.40;;;;;;;-145.69;100.00;52523.59;5094091;28;20238;-80
2023/04/30 01:34:34;;;;;;;10.97;6.30;;;;;;;-145.69;100.00;52515.69;5094167;28;20649;-81
2023/04/30 01:37:10;;;;;;;12.33;6.80;;;;;;;-145.69;100.00;52531.53;5093809;28;20271;-81
2023/04/30 01:39:50;;;;;;;14.07;7.20;;;;;;;-145.69;100.00;52543.41;5093890;28;20208;-81
2023/04/30 01:42:21;;;;;;;16.13;7.07;;;;;;;-145.69;100.00;52559.25;5094017;28;20213;-81
2023/04/30 01:45:21;;;;;;;12.87;6.80;;;;;;;-145.69;100.00;52523.59;5093862;28;20232;-80
2023/04/30 01:47:53;;;;;;;12.37;7.00;;;;;;;-145.69;100.00;52527.56;5093854;28;20628;-81
2023/04/30 01:50:27;;;;;;;15.80;7.67;;;;;;;-145.69;100.00;52533.50;5093736;28;20668;-81
2023/04/30 01:52:56;;;;;;;14.83;7.50;;;;;;;-145.69;100.00;52533.50;5093716;28;20194;-81
2023/04/30 01:55:30;;;;;;;14.33;7.23;;;;;;;-145.69;100.00;52583.00;5093296;28;20214;-81
2023/04/30 01:57:58;;;;;;;14.90;8.93;;;;;;;-145.69;100.00;52527.56;5092748;28;20432;-81
2023/04/30 02:00:27;;;;;;;13.50;7.40;;;;;;;-145.69;100.00;52521.63;5089565;28;20248;-81
2023/04/30 02:02:53;;;;;;;12.47;6.40;;;;;;;-145.69;100.00;52541.44;5092964;28;20668;-80
2023/04/30 02:05:20;;;;;;;12.63;6.73;;;;;;;-145.69;100.00;52555.28;5093511;28;20279;-80
2023/04/30 02:07:49;;;;;;;15.03;7.10;;;;;;;-145.69;100.00;52535.47;5092718;28;20560;-80
2023/04/30 02:10:17;;;;;;;14.40;6.87;;;;;;;-145.69;100.00;52547.38;5093303;28;20210;-80
2023/04/30 02:12:46;;;;;;;14.03;7.70;;;;;;;-145.69;100.00;52539.44;5093255;28;20190;-80
2023/04/30 02:15:13;;;;;;;18.13;8.47;;;;;;;-145.69;100.00;52505.78;5092915;28;20230;-79
2023/04/30 02:17:41;;;;;;;19.03;8.20;;;;;;;-145.69;100.00;52551.31;5092728;28;20522;-80
2023/04/30 02:20:08;;;;;;;14.70;8.23;;;;;;;-145.69;100.00;52551.31;5093323;28;20206;-80
2023/04/30 02:22:35;;;;;;;19.77;9.33;;;;;;;-145.69;100.00;52545.38;5093275;28;20205;-80
2023/04/30 02:25:01;;;;;;;19.37;8.63;;;;;;;-145.69;100.00;52561.22;5093137;28;20221;-79
2023/04/30 02:27:31;;;;;;;16.70;7.70;;;;;;;-145.69;100.00;52555.28;5093045;28;20212;-79
2023/04/30 02:29:57;;;;;;;15.97;8.40;;;;;;;-145.69;100.00;52577.06;5093095;28;20194;-80
2023/04/30 02:32:24;;;;;;;21.17;8.83;;;;;;;-145.69;100.00;52569.16;5092641;28;20209;-81
2023/04/30 02:34:52;;;;;;;17.83;8.07;;;;;;;-145.69;100.00;52559.25;5093131;28;20198;-80
2023/04/30 02:37:18;;;;;;;18.27;8.87;;;;;;;-145.69;100.00;52575.09;5093052;28;20209;-80
2023/04/30 02:39:45;;;;;;;18.37;9.30;;;;;;;-145.69;100.00;52557.28;5091858;28;20202;-80
2023/04/30 02:42:11;;;;;;;22.20;9.50;;;;;;;-145.69;100.00;52521.63;5092469;28;20198;-80
2023/04/30 02:44:38;;;;;;;26.43;10.77;;;;;;;-145.69;100.00;52579.06;5092673;28;20549;-80
2023/04/30 02:47:05;;;;;;;25.07;10.63;;;;;;;-145.69;100.00;52547.38;5093219;28;20202;-80
2023/04/30 02:49:31;;;;;;;20.57;9.93;;;;;;;-145.69;100.00;52575.09;5092617;28;20198;-80
2023/04/30 02:51:59;;;;;;;23.43;10.67;;;;;;;-145.69;100.00;52559.25;5092542;28;20553;-80
2023/04/30 02:54:28;;;;;;;20.37;9.70;;;;;;;-145.69;100.00;52567.16;5092831;28;20208;-80
2023/04/30 02:56:55;;;;;;;19.47;9.27;;;;;;;-145.69;100.00;52535.47;5092083;28;20273;-80
2023/04/30 02:59:21;;;;;;;26.60;11.23;;;;;;;-145.69;100.00;52561.22;5092552;28;20198;-80
2023/04/30 03:01:48;;;;;;;23.83;8.47;;;;;;;-145.69;100.00;52523.59;5092752;28;20205;-81
2023/04/30 03:04:14;;;;;;;18.27;8.57;;;;;;;-145.69;100.00;52563.22;5092796;28;20232;-80
2023/04/30 03:06:41;;;;;;;21.60;9.40;;;;;;;-145.69;100.00;52579.06;5092631;28;20205;-81
2023/04/30 03:09:09;;;;;;;22.90;8.83;;;;;;;-145.69;100.00;52543.41;5092807;28;20202;-80
2023/04/30 03:11:36;;;;;;;21.13;9.57;;;;;;;-145.69;100.00;52555.28;5092327;28;20190;-80
2023/04/30 03:14:03;;;;;;;19.13;8.67;;;;;;;-145.69;100.00;52541.44;5092349;28;20190;-80
2023/04/30 03:16:30;;;;;;;17.07;7.93;;;;;;;-145.69;100.00;52581.03;5092329;28;20316;-80
2023/04/30 03:18:56;;;;;;;16.37;7.90;;;;;;;-145.69;100.00;52539.44;5092446;28;20198;-80
2023/04/30 03:21:22;;;;;;;11.80;6.37;;;;;;;-145.69;100.00;52547.38;5092754;28;20202;-80
2023/04/30 03:23:49;;;;;;;15.73;7.57;;;;;;;-145.69;100.00;52553.31;5092292;28;20675;-80
2023/04/30 03:26:17;;;;;;;16.80;7.53;;;;;;;-145.69;100.00;52567.16;5092121;28;20187;-81
2023/04/30 03:28:43;;;;;;;18.20;8.13;;;;;;;-145.69;100.00;52575.09;5094451;28;20779;-80
2023/04/30 03:31:10;;;;;;;13.30;7.10;;;;;;;-145.69;100.00;52557.28;5096563;28;20205;-80
2023/04/30 03:33:36;;;;;;;13.63;7.33;;;;;;;-145.69;100.00;52602.81;5096187;28;20209;-80
2023/04/30 03:36:05;;;;;;;13.00;7.33;;;;;;;-145.69;100.00;52571.13;5096328;28;20225;-80
2023/04/30 03:38:31;;;;;;;15.67;6.57;;;;;;;-145.69;100.00;52533.50;5096245;28;20202;-80
2023/04/30 03:40:58;;;;;;;14.27;6.93;;;;;;;-145.69;100.00;52563.22;5095840;28;20209;-80
2023/04/30 03:43:25;;;;;;;15.80;7.40;;;;;;;-145.69;100.00;52571.13;5096320;28;20205;-80
2023/04/30 03:45:52;;;;;;;11.20;6.60;;;;;;;-145.69;100.00;52583.00;5096326;28;20194;-81
2023/04/30 03:48:18;;;;;;;19.10;8.87;;;;;;;-145.69;100.00;52547.38;5095624;28;20836;-80
2023/04/30 03:50:45;;;;;;;17.00;7.63;;;;;;;-145.69;100.00;52557.28;5095716;28;20708;-79
2023/04/30 03:53:12;;;;;;;13.03;7.13;;;;;;;-145.69;100.00;52559.25;5095664;28;20198;-80
2023/04/30 03:55:38;;;;;;;13.00;6.77;;;;;;;-145.69;100.00;52539.44;5095960;28;20226;-80
2023/04/30 03:58:05;;;;;;;12.20;6.43;;;;;;;-145.69;100.00;52551.31;5095952;28;20206;-80
2023/04/30 04:00:33;;;;;;;9.37;4.80;;;;;;;-145.69;100.00;52541.44;5096024;28;20194;-81
2023/04/30 04:03:00;;;;;;;11.30;5.87;;;;;;;-145.69;100.00;52527.56;5095583;28;20203;-80
2023/04/30 04:05:26;;;;;;;12.97;5.77;;;;;;;-145.69;100.00;52507.75;5092708;28;20230;-80
2023/04/30 04:07:53;;;;;;;11.37;5.23;;;;;;;-145.69;100.00;52513.69;5075461;28;20209;-80
2023/04/30 04:10:19;;;;;;;11.23;5.87;;;;;;;-145.69;100.00;52547.38;5075141;28;20649;-80
2023/04/30 04:12:46;;;;;;;12.30;6.50;;;;;;;-145.69;100.00;52547.38;5090092;28;20589;-81
2023/04/30 04:15:12;;;;;;;14.07;6.70;;;;;;;-145.69;100.00;52543.41;5095766;28;20198;-80
2023/04/30 04:17:40;;;;;;;11.80;6.70;;;;;;;-145.69;100.00;52499.84;5095242;28;20232;-81
2023/04/30 04:20:08;;;;;;;11.27;6.40;;;;;;;-145.69;100.00;52519.63;5094780;28;20198;-80
2023/04/30 04:22:35;;;;;;;10.17;5.93;;;;;;;-145.69;100.00;52551.31;5094612;28;20194;-81
2023/04/30 04:25:01;;;;;;;12.00;6.43;;;;;;;-145.69;100.00;52561.22;5095135;28;20683;-80
2023/04/30 04:27:28;;;;;;;12.03;6.67;;;;;;;-145.69;100.00;52549.34;5094232;28;20289;-81
2023/04/30 04:29:54;;;;;;;14.43;6.37;;;;;;;-145.69;100.00;52547.38;5092955;28;20197;-80
2023/04/30 04:32:22;;;;;;;11.73;6.37;;;;;;;-145.69;100.00;52547.38;5095220;28;20197;-81
2023/04/30 04:34:50;;;;;;;16.03;7.63;;;;;;;-145.69;100.00;52575.09;5095222;28;20200;-80
2023/04/30 04:37:16;;;;;;;14.03;7.20;;;;;;;-145.69;100.00;52549.34;5095212;28;20222;-80
2023/04/30 04:39:43;;;;;;;13.90;6.53;;;;;;;-145.69;100.00;52547.38;5093572;28;20243;-80
2023/04/30 04:42:10;;;;;;;11.67;6.20;;;;;;;-145.69;100.00;52539.44;5094772;28;20202;-81
2023/04/30 04:44:37;;;;;;;10.13;5.63;;;;;;;-145.69;100.00;52531.53;5095139;28;20194;-80
2023/04/30 04:47:03;;;;;;;10.20;5.20;;;;;;;-145.69;100.00;52535.47;5094974;28;20244;-80
2023/04/30 04:49:30;;;;;;;12.63;5.37;;;;;;;-145.69;100.00;52563.22;5094505;28;20206;-80
2023/04/30 04:51:58;;;;;;;11.53;5.60;;;;;;;-145.69;100.00;52535.47;5095193;28;20208;-80
2023/04/30 04:54:24;;;;;;;9.23;5.63;;;;;;;-145.69;100.00;52531.53;5094679;28;20202;-80
2023/04/30 04:56:51;;;;;;;8.40;4.73;;;;;;;-145.69;100.00;52535.47;5094556;28;20221;-81
2023/04/30 04:59:18;;;;;;;8.60;5.27;;;;;;;-145.69;100.00;52585.00;5094435;28;20233;-80
2023/04/30 05:01:44;;;;;;;8.67;5.00;;;;;;;-145.69;100.00;52482.00;5094534;28;20198;-80
2023/04/30 05:04:12;;;;;;;9.20;4.60;;;;;;;-145.69;100.00;52513.69;5094204;28;20226;-80
2023/04/30 05:06:39;;;;;;;12.80;5.63;;;;;;;-145.69;100.00;52519.63;5094999;28;20569;-81
2023/04/30 05:09:08;;;;;;;9.97;5.20;;;;;;;-145.69;100.00;52543.41;5094454;28;20205;-80
2023/04/30 05:11:35;;;;;;;9.17;4.87;;;;;;;-145.69;100.00;52545.38;5094545;28;20217;-81
2023/04/30 05:14:01;;;;;;;13.30;6.63;;;;;;;-145.69;100.00;52519.63;5094279;28;20209;-80
2023/04/30 05:16:28;;;;;;;10.17;5.60;;;;;;;-145.69;100.00;52519.63;5094298;28;20226;-79
2023/04/30 05:18:54;;;;;;;13.70;5.83;;;;;;;-145.69;100.00;52541.44;5093606;28;20194;-80
2023/04/30 05:21:21;;;;;;;9.77;6.33;;;;;;;-145.69;100.00;52547.38;5094237;28;20204;-80
2023/04/30 05:23:48;;;;;;;12.10;6.23;;;;;;;-145.69;100.00;52527.56;5094259;28;20659;-80
2023/04/30 05:26:16;;;;;;;10.97;6.00;;;;;;;-145.69;100.00;52509.75;5093842;28;20661;-80
2023/04/30 05:28:42;;;;;;;10.13;5.77;;;;;;;-145.69;100.00;52551.31;5094259;28;20573;-80
2023/04/30 05:31:09;;;;;;;10.00;6.33;;;;;;;-145.69;100.00;52531.53;5094004;28;20603;-80
2023/04/30 05:33:36;;;;;;;11.80;6.63;;;;;;;-145.69;100.00;52503.81;5093652;28;20198;-81
2023/04/30 05:36:03;;;;;;;11.93;6.83;;;;;;;-145.69;100.00;52519.63;5093849;28;20194;-80
2023/04/30 05:38:29;;;;;;;9.53;5.90;;;;;;;-145.69;100.00;52509.75;5094008;28;20202;-80
2023/04/30 05:40:56;;;;;;;10.90;6.37;;;;;;;-145.69;100.00;52503.81;5093933;28;20194;-80
2023/04/30 05:43:24;;;;;;;11.80;6.63;;;;;;;-145.69;100.00;52543.41;5093626;28;20653;-79
2023/04/30 05:45:50;;;;;;;10.43;6.27;;;;;;;-145.69;100.00;52507.75;5094123;28;20297;-80
2023/04/30 05:48:17;;;;;;;10.70;6.30;;;;;;;-145.69;100.00;52497.84;5093437;28;20205;-80
2023/04/30 05:50:43;;;;;;;10.73;6.50;;;;;;;-145.69;100.00;52509.75;5093543;28;20216;-81
2023/04/30 05:53:10;;;;;;;11.93;6.57;;;;;;;-145.69;100.00;52472.13;5093571;28;20628;-79
2023/04/30 05:55:37;;;;;;;11.70;6.57;;;;;;;-145.69;100.00;52529.53;5093453;28;20202;-80
2023/04/30 05:58:03;;;;;;;13.20;6.93;;;;;;;-145.69;100.00;52539.44;5092832;28;20218;-80
2023/04/30 06:00:31;;;;;;;12.80;6.50;;;;;;;-145.69;100.00;52485.97;5093349;28;20233;-80
2023/04/30 06:02:58;;;;;;;11.63;6.20;;;;;;;-145.69;100.00;52503.81;5091879;28;20186;-79
2023/04/30 06:05:25;;;;;;;11.93;6.63;;;;;;;-145.69;100.00;52499.84;5093295;28;20230;-82
2023/04/30 06:07:51;;;;;;;13.80;6.57;;;;;;;-145.69;100.00;52521.63;5092679;28;20277;-82
2023/04/30 06:10:18;;;;;;;11.97;7.00;;;;;;;-145.69;100.00;52513.69;5093654;28;20198;-81
2023/04/30 06:12:44;;;;;;;10.93;6.03;;;;;;;-145.69;100.00;52509.75;5093389;28;20209;-82
2023/04/30 06:15:11;;;;;;;12.07;6.70;;;;;;;-145.69;100.00;52489.94;5093681;28;20202;-80
2023/04/30 06:17:39;;;;;;;10.67;6.37;;;;;;;-145.69;100.00;52527.56;5093400;28;20226;-81
2023/04/30 06:20:07;;;;;;;12.00;7.17;;;;;;;-145.69;100.00;52499.84;5093274;28;20199;-82
2023/04/30 06:22:33;;;;;;;12.53;7.07;;;;;;;-145.69;100.00;52503.81;5093229;28;20285;-80
2023/04/30 06:25:00;;;;;;;12.90;7.07;;;;;;;-145.69;100.00;52460.22;5093003;28;20699;-81
2023/04/30 06:27:27;;;;;;;13.80;7.30;;;;;;;-145.69;100.00;52507.75;5093195;28;20221;-82
2023/04/30 06:29:54;;;;;;;11.30;6.47;;;;;;;-145.69;100.00;52513.69;5093049;28;20244;-81
2023/04/30 06:32:20;;;;;;;11.50;6.97;;;;;;;-145.69;100.00;52505.78;5093122;28;20190;-81
2023/04/30 06:34:49;;;;;;;10.87;7.20;;;;;;;-145.69;100.00;52499.84;5092237;28;20190;-81
2023/04/30 06:37:15;;;;;;;13.98;7.53;;;;;;;-145.69;100.00;52545.38;5092946;28;20214;-81
2023/04/30 06:39:42;;;;;;;12.40;6.75;;;;;;;-145.69;100.00;52499.84;5093100;28;20206;-81
2023/04/30 06:42:08;;;;;;;13.95;6.55;;;;;;;-145.69;100.00;52487.97;5092999;28;20241;-79
2023/04/30 06:44:35;;;;;;;11.73;6.50;;;;;;;-145.69;100.00;52537.47;5093097;28;20255;-81
2023/04/30 06:47:01;;;;;;;15.80;6.20;;;;;;;-145.69;100.00;52480.03;5092485;28;20190;-81
2023/04/30 06:49:28;;;;;;;11.43;5.82;;;;;;;-145.69;100.00;52472.13;5091881;28;20197;-81
2023/04/30 06:51:57;;;;;;;10.90;6.32;;;;;;;-145.69;100.00;52464.19;5092693;28;20206;-81
2023/04/30 06:54:25;;;;;;;11.63;5.68;;;;;;;-145.69;100.00;52497.84;5092459;28;20561;-79
2023/04/30 06:56:52;;;;;;;10.93;6.20;;;;;;;-145.69;100.00;52480.03;5092627;28;20228;-80
2023/04/30 06:59:18;;;;;;;10.60;5.97;;;;;;;-145.69;100.00;52499.84;5092720;28;20205;-78
2023/04/30 07:01:45;;;;;;;12.65;6.32;;;;;;;-145.69;100.00;52495.88;5092514;28;20208;-79
2023/04/30 07:04:12;;;;;;;9.88;6.22;;;;;;;-145.69;100.00;52503.81;5095306;28;20234;-79
2023/04/30 07:06:38;;;;;;;10.88;5.70;;;;;;;-145.69;100.00;52497.84;5097116;28;20209;-79
2023/04/30 07:09:06;;;;;;;11.43;6.68;;;;;;;-145.69;100.00;52484.00;5096816;28;20208;-80
2023/04/30 07:11:32;;;;;;;11.95;6.45;;;;;;;-145.69;100.00;52478.06;5096596;28;20202;-80
2023/04/30 07:13:59;;;;;;;10.48;6.38;;;;;;;-145.69;100.00;52478.06;5096442;28;20656;-79
2023/04/30 07:16:26;;;;;;;10.45;6.35;;;;;;;-145.69;100.00;52456.28;5096716;28;20206;-79
2023/04/30 07:18:53;;;;;;;10.43;6.28;;;;;;;-145.69;100.00;52491.91;5096251;28;20194;-78
2023/04/30 07:21:20;;;;;;;11.25;6.45;;;;;;;-145.69;100.00;52495.88;5096120;28;20202;-80
2023/04/30 07:23:47;;;;;;;12.75;6.38;;;;;;;-145.69;100.00;52499.84;5096633;28;20194;-79
2023/04/30 07:26:15;;;;;;;12.20;6.55;;;;;;;-145.69;100.00;52462.22;5096251;28;20665;-80
2023/04/30 07:28:42;;;;;;;8.40;5.47;;;;;;;-145.69;100.00;52452.31;5096067;28;20568;-80
2023/04/30 07:31:08;;;;;;;10.55;6.25;;;;;;;-145.69;100.00;52476.06;5096427;28;20198;-81
2023/04/30 07:33:35;;;;;;;9.85;5.97;;;;;;;-145.69;100.00;52478.06;5096431;28;20334;-80
2023/04/30 07:36:01;;;;;;;9.95;6.22;;;;;;;-145.69;100.00;52404.78;5095865;28;20198;-80
2023/04/30 07:38:28;;;;;;;8.75;5.57;;;;;;;-145.69;100.00;52480.03;5094799;28;20347;-80
2023/04/30 07:40:54;;;;;;;8.55;5.03;;;;;;;-145.69;100.00;52487.97;5096365;28;20214;-79
2023/04/30 07:43:22;;;;;;;8.95;5.43;;;;;;;-145.69;100.00;52468.16;5096156;28;20197;-80
2023/04/30 07:45:50;;;;;;;9.52;5.55;;;;;;;-145.69;100.00;52474.09;5096084;28;20202;-80
2023/04/30 07:48:16;;;;;;;7.95;4.88;;;;;;;-145.69;100.00;52456.28;5096098;28;20209;-80
2023/04/30 07:50:43;;;;;;;8.98;5.40;;;;;;;-145.69;100.00;52489.94;5096141;28;20205;-80
2023/04/30 07:53:09;;;;;;;9.70;5.35;;;;;;;-145.69;100.00;52408.75;5096265;28;20225;-80
2023/04/30 07:55:36;;;;;;;7.93;4.63;;;;;;;-145.69;100.00;52454.28;5093708;28;20197;-80
2023/04/30 07:58:03;;;;;;;9.05;5.40;;;;;;;-145.69;100.00;52440.44;5096059;28;20681;-80
2023/04/30 08:00:31;;;;;;;7.93;5.20;;;;;;;-145.69;100.00;52456.28;5096025;28;20202;-82
2023/04/30 08:02:59;;;;;;;8.63;5.65;;;;;;;-145.69;100.00;52468.16;5095613;28;20563;-79
2023/04/30 08:05:25;;;;;;;7.35;5.13;;;;;;;-145.69;100.00;52432.50;5095447;28;20237;-79
2023/04/30 08:07:52;;;;;;;8.90;4.90;;;;;;;-145.69;100.00;52426.56;5095304;28;20610;-80
2023/04/30 08:10:18;;;;;;;8.23;4.72;;;;;;;-145.69;100.00;52384.97;5082156;28;20206;-80
2023/04/30 08:12:45;;;;;;;9.65;4.50;;;;;;;-145.69;100.00;52432.50;5074950;28;20704;-80
2023/04/30 08:15:12;;;;;;;7.68;4.78;;;;;;;-145.69;100.00;52446.38;5095148;28;20194;-79
2023/04/30 08:17:40;;;;;;;8.00;4.80;;;;;;;-145.69;93.34;52406.75;5095472;28;20318;-80
2023/04/30 08:20:08;;;;;;;8.93;4.30;;;;;;;-145.69;97.85;52414.69;5095759;28;20202;-79
2023/04/30 08:22:35;;;;;;;8.63;4.72;;;;;;;-145.69;94.64;52428.53;5095112;28;20688;-79
2023/04/30 08:25:01;;;;;;;9.10;4.20;;;;;;;-145.69;99.87;52396.84;5095273;28;20193;-80
2023/04/30 08:27:28;;;;;;;6.65;3.83;;;;;;;-145.69;89.31;52408.75;5095481;28;20209;-81
2023/04/30 08:29:54;;;;;;;8.23;3.83;;;;;;;-145.69;84.36;52428.53;5095464;28;20205;-80
2023/04/30 08:32:21;;;;;;;6.22;4.00;;;;;;;-145.69;81.55;52444.38;5094986;28;20237;-81
2023/04/30 08:34:49;;;;;;;6.82;3.92;;;;;;;-145.69;82.22;52428.53;5095325;28;20194;-80
2023/04/30 08:37:15;;;;;;;6.82;3.53;;;;;;;-145.69;78.13;52384.97;5094323;28;20232;-80
2023/04/30 08:39:42;;;;;;;4.78;3.10;;;;;;;-145.69;81.00;52416.66;5095003;28;20202;-80
2023/04/30 08:42:09;;;;;;;3.97;2.95;;;;;;;-145.69;77.95;52396.84;5094698;28;20198;-80
2023/04/30 08:44:38;;;;;;;4.72;3.28;;;;;;;-145.69;68.82;52406.75;5095066;28;20205;-80
2023/04/30 08:47:07;;;;;;;6.28;3.92;;;;;;;-145.69;76.62;52404.78;5095073;28;20194;-80
2023/04/30 08:49:35;;;;;;;4.72;3.10;;;;;;;-145.69;78.54;52416.66;5094706;28;20198;-80
2023/04/30 08:52:03;;;;;;;5.03;2.78;;;;;;;-145.69;77.62;52398.84;5094812;28;20282;-79
2023/04/30 08:54:31;;;;;;;5.25;3.03;;;;;;;-145.69;73.71;52390.91;5094371;28;20209;-81
2023/04/30 08:56:57;;;;;;;4.72;2.90;;;;;;;-145.69;70.88;52410.72;5094683;28;20224;-79
2023/04/30 08:59:24;;;;;;;4.53;3.10;;;;;;;-145.69;75.97;52365.16;5094737;28;20295;-80
2023/04/30 09:01:50;;;;;;;3.67;2.20;;;;;;;-145.69;77.20;52377.06;5094388;28;20194;-79
2023/04/30 09:04:17;;;;;;;2.97;2.55;;;;;;;-145.69;70.65;52373.09;5094616;28;20229;-79
2023/04/30 09:06:44;;;;;;;5.28;2.97;;;;;;;-145.69;73.18;52392.91;5094230;28;20213;-80
2023/04/30 09:09:16;;;;;;;4.32;2.70;;;;;;;-145.69;72.67;52410.72;5094502;28;20568;-80
2023/04/30 09:11:42;;;;;;;5.05;2.47;;;;;;;-145.69;75.00;52388.94;5094435;28;20209;-79
2023/04/30 09:14:09;;;;;;;3.35;2.25;;;;;;;-145.69;63.98;52359.22;5094521;28;20205;-80
2023/04/30 09:16:47;;;;;;;3.38;2.40;;;;;;;-145.69;65.40;52412.69;5094244;28;20202;-79
2023/04/30 09:19:24;;;;;;;3.25;2.72;;;;;;;-145.69;67.63;52404.78;5094603;28;20257;-79
2023/04/30 09:21:50;;;;;;;4.35;2.67;;;;;;;-145.69;67.44;52394.88;5093757;28;20248;-80
2023/04/30 09:24:19;;;;;;;3.55;2.53;;;;;;;-145.69;63.69;52390.91;5094263;28;20202;-78
2023/04/30 09:26:46;;;;;;;4.22;2.05;;;;;;;-145.69;67.28;52398.84;5093482;28;20672;-78
2023/04/30 09:29:14;;;;;;;2.92;1.98;;;;;;;-145.69;64.66;52402.78;5094296;28;20209;-79
2023/04/30 09:31:44;;;;;;;2.85;2.22;;;;;;;-145.69;66.28;52404.78;5093818;28;20194;-79
2023/04/30 09:34:10;;;;;;;4.03;2.50;;;;;;;-145.69;65.16;52375.06;5094064;28;20702;-78
2023/04/30 09:36:37;;;;;;;2.80;2.03;;;;;;;-145.69;65.83;52400.81;5094023;28;20209;-79
2023/04/30 09:39:07;;;;;;;2.42;1.70;;;;;;;-145.69;67.63;52341.41;5093663;28;20226;-79
2023/04/30 09:41:35;;;;;;;3.72;2.15;;;;;;;-145.69;60.64;52379.03;5094341;28;20289;-79
2023/04/30 09:44:02;;;;;;;3.50;2.38;;;;;;;-145.69;64.38;52396.84;5093928;28;20198;-81
2023/04/30 09:46:31;;;;;;;2.22;1.80;;;;;;;-145.69;56.95;52390.91;5093892;28;20202;-79
2023/04/30 09:49:00;;;;;;;3.30;2.38;;;;;;;-145.69;65.86;52383.00;5093908;28;20556;-79
2023/04/30 09:51:27;;;;;;;2.97;1.73;;;;;;;-145.69;55.97;52388.94;5093151;28;20190;-80
2023/04/30 09:53:54;;;;;;;2.20;1.63;;;;;;;-145.69;56.52;52410.72;5094001;28;20198;-81
2023/04/30 09:56:23;;;;;;;2.00;1.70;;;;;;;-145.69;61.89;52369.13;5093433;28;20198;-81
2023/04/30 09:58:53;;;;;;;3.78;1.88;;;;;;;-145.69;58.74;52369.13;5093176;28;20222;-80
2023/04/30 10:01:20;;;;;;;1.98;1.42;;;;;;;-145.69;56.04;52367.16;5091487;28;20205;-80
2023/04/30 10:03:48;;;;;;;2.40;1.77;;;;;;;-145.69;55.59;52402.78;5093112;28;20233;-78
2023/04/30 10:06:17;;;;;;;3.13;1.80;;;;;;;-145.69;57.13;52379.03;5092922;28;20205;-80
2023/04/30 10:08:47;;;;;;;3.47;1.88;;;;;;;-145.69;58.79;52396.84;5093607;28;20202;-79
2023/04/30 10:11:20;;;;;;;3.08;1.88;;;;;;;-145.69;58.61;52388.94;5093443;28;20205;-80
2023/04/30 10:13:54;;;;;;;3.38;1.80;;;;;;;-145.69;59.91;52390.91;5093399;28;20203;-81
2023/04/30 10:16:34;;;;;;;3.58;2.35;;;;;;;-145.69;58.32;52384.97;5094530;28;20201;-80
2023/04/30 10:19:06;;;;;;;2.97;1.98;;;;;;;-145.69;58.59;52390.91;5095996;28;20225;-81
2023/04/30 10:21:34;;;;;;;3.72;2.40;;;;;;;-145.69;60.33;52373.09;5093675;28;20644;-80
2023/04/30 10:24:01;;;;;;;4.95;2.00;;;;;;;-145.69;58.68;52363.19;5093353;28;20210;-80
2023/04/30 10:26:28;;;;;;;4.55;2.35;;;;;;;-145.69;52.17;52365.16;5093234;28;20563;-80
2023/04/30 10:28:59;;;;;;;7.72;2.13;;;;;;;-145.69;56.52;52381.00;5092644;28;20190;-80
2023/04/30 10:31:26;;;;;;;2.67;2.13;;;;;;;-145.69;59.45;52373.09;5093187;28;20225;-79
2023/04/30 10:34:04;;;;;;;5.25;2.55;;;;;;;-145.69;55.42;52355.28;5093470;28;20194;-79
2023/04/30 10:36:39;;;;;;;3.42;2.15;;;;;;;-145.69;54.63;52377.06;5093279;28;20243;-80
2023/04/30 10:39:06;;;;;;;2.35;1.80;;;;;;;-145.69;54.35;52349.31;5092090;28;20704;-80
2023/04/30 10:41:33;;;;;;;4.22;2.25;;;;;;;-145.69;53.22;52361.22;5093023;28;20206;-80
2023/04/30 10:44:04;;;;;;;3.60;2.42;;;;;;;-145.69;53.17;52367.16;5093192;28;20206;-79
2023/04/30 10:46:31;;;;;;;3.38;2.42;;;;;;;-145.69;56.34;52373.09;5093109;28;20202;-80
2023/04/30 10:48:59;;;;;;;2.60;1.75;;;;;;;-145.69;54.00;52365.16;5092186;28;20533;-80
2023/04/30 10:51:45;;;;;;;2.75;2.13;;;;;;;-145.69;57.87;52357.25;5092075;28;20267;-80
2023/04/30 10:54:13;;;;;;;3.50;2.00;;;;;;;-145.69;55.69;52361.22;5092906;28;20198;-79
2023/04/30 10:56:40;;;;;;;3.10;2.35;;;;;;;-145.69;57.17;52386.97;5092568;28;20708;-79
2023/04/30 10:59:08;;;;;;;3.13;2.20;;;;;;;-145.69;55.59;52369.13;5092231;28;20638;-80
2023/04/30 11:01:56;;;;;;;3.33;2.20;;;;;;;-145.69;52.34;52384.97;5092690;28;20645;-78
2023/04/30 11:04:23;;;;;;;4.22;2.33;;;;;;;-145.69;57.30;52363.19;5092284;28;20248;-79
2023/04/30 11:06:56;;;;;;;2.75;2.00;;;;;;;-145.69;56.09;52329.53;5092507;28;20204;-79
2023/04/30 11:09:37;;;;;;;4.88;2.50;;;;;;;-145.69;49.88;52371.13;5092607;28;20217;-80